createdAt,value
2023-04-15T00:00:46.594Z,91801.00
2023-04-15T00:01:46.695Z,91799.00
2023-04-15T00:02:46.742Z,91801.00
2023-04-15T00:03:46.900Z,91803.00
2023-04-15T00:04:46.813Z,91803.00
2023-04-15T00:05:46.711Z,91801.00
2023-04-15T00:06:46.723Z,91801.00
2023-04-15T00:07:46.748Z,91801.00
2023-04-15T00:08:46.774Z,91803.00
2023-04-15T00:09:46.783Z,91805.00
2023-04-15T00:10:46.876Z,91803.00
2023-04-15T00:11:46.813Z,91803.00
2023-04-15T00:12:46.829Z,91801.00
2023-04-15T00:13:46.844Z,91805.00
2023-04-15T00:14:46.856Z,91803.00
2023-04-15T00:15:46.892Z,91803.00
2023-04-15T00:16:46.925Z,91803.00
2023-04-15T00:17:47.048Z,91805.00
2023-04-15T00:18:47.151Z,91809.00
2023-04-15T00:19:46.953Z,91807.00
2023-04-15T00:20:46.976Z,91807.00
2023-04-15T00:21:46.999Z,91807.00
2023-04-15T00:22:47.015Z,91809.00
2023-04-15T00:23:47.054Z,91805.00
2023-04-15T00:24:47.084Z,91809.00
2023-04-15T00:25:47.098Z,91807.00
2023-04-15T00:26:47.125Z,91807.00
2023-04-15T00:27:47.144Z,91809.00
2023-04-15T00:28:47.173Z,91807.00
2023-04-15T00:29:47.201Z,91809.00
2023-04-15T00:30:47.263Z,91807.00
2023-04-15T00:31:47.234Z,91807.00
2023-04-15T00:32:47.315Z,91803.00
2023-04-15T00:33:47.282Z,91805.00
2023-04-15T00:34:47.300Z,91807.00
2023-04-15T00:35:47.345Z,91807.00
2023-04-15T00:36:47.355Z,91805.00
2023-04-15T00:37:47.395Z,91805.00
2023-04-15T00:38:47.411Z,91807.00
2023-04-15T00:39:47.419Z,91805.00
2023-04-15T00:40:47.449Z,91807.00
2023-04-15T00:41:47.461Z,91805.00
2023-04-15T00:42:47.472Z,91803.00
2023-04-15T00:43:47.495Z,91803.00
2023-04-15T00:44:47.510Z,91803.00
2023-04-15T00:45:47.586Z,91803.00
2023-04-15T00:46:47.535Z,91803.00
2023-04-15T00:47:47.574Z,91801.00
2023-04-15T00:48:47.556Z,91803.00
2023-04-15T00:49:47.581Z,91803.00
2023-04-15T00:50:47.616Z,91803.00
2023-04-15T00:51:47.630Z,91807.00
2023-04-15T00:52:47.650Z,91803.00
2023-04-15T00:53:47.684Z,91809.00
2023-04-15T00:54:47.699Z,91809.00
2023-04-15T00:55:47.726Z,91807.00
2023-04-15T00:56:47.745Z,91811.00
2023-04-15T00:57:47.774Z,91807.00
2023-04-15T00:58:47.789Z,91807.00
2023-04-15T00:59:47.818Z,91807.00
2023-04-15T01:00:47.822Z,91811.00
2023-04-15T01:01:47.981Z,91805.00
2023-04-15T01:02:47.952Z,91807.00
2023-04-15T01:03:48.029Z,91809.00
2023-04-15T01:04:47.911Z,91809.00
2023-04-15T01:05:47.942Z,91811.00
2023-04-15T01:06:47.958Z,91809.00
2023-04-15T01:07:47.978Z,91809.00
2023-04-15T01:08:48.001Z,91811.00
2023-04-15T01:09:48.046Z,91815.00
2023-04-15T01:10:48.049Z,91813.00
2023-04-15T01:11:48.069Z,91809.00
2023-04-15T01:12:48.104Z,91809.00
2023-04-15T01:13:48.114Z,91811.00
2023-04-15T01:14:48.140Z,91811.00
2023-04-15T01:15:48.174Z,91815.00
2023-04-15T01:16:48.189Z,91822.00
2023-04-15T01:17:48.240Z,91815.00
2023-04-15T01:18:48.244Z,91824.00
2023-04-15T01:19:48.263Z,91822.00
2023-04-15T01:20:48.278Z,91815.00
2023-04-15T01:21:48.291Z,91824.00
2023-04-15T01:22:48.319Z,91826.00
2023-04-15T01:23:48.330Z,91826.00
2023-04-15T01:24:48.361Z,91824.00
2023-04-15T01:25:48.363Z,91824.00
2023-04-15T01:26:48.384Z,91822.00
2023-04-15T01:27:48.408Z,91824.00
2023-04-15T01:28:48.429Z,91824.00
2023-04-15T01:29:48.457Z,91824.00
2023-04-15T01:30:48.476Z,91824.00
2023-04-15T01:31:48.511Z,91824.00
2023-04-15T01:32:48.541Z,91826.00
2023-04-15T01:33:48.538Z,91815.00
2023-04-15T01:34:48.525Z,91824.00
2023-04-15T01:35:48.554Z,91824.00
2023-04-15T01:36:48.569Z,91826.00
2023-04-15T01:37:48.596Z,91826.00
2023-04-15T01:38:48.608Z,91822.00
2023-04-15T01:39:48.616Z,91815.00
2023-04-15T01:40:48.626Z,91815.00
2023-04-15T01:41:48.656Z,91815.00
2023-04-15T01:42:48.740Z,91813.00
2023-04-15T01:43:48.695Z,91811.00
2023-04-15T01:44:48.771Z,91811.00
2023-04-15T01:45:48.732Z,91815.00
2023-04-15T01:46:48.764Z,91811.00
2023-04-15T01:47:48.819Z,91809.00
2023-04-15T01:48:48.782Z,91811.00
2023-04-15T01:49:48.827Z,91809.00
2023-04-15T01:50:48.818Z,91805.00
2023-04-15T01:51:48.840Z,91809.00
2023-04-15T01:52:48.894Z,91807.00
2023-04-15T01:53:48.889Z,91809.00
2023-04-15T01:54:48.907Z,91809.00
2023-04-15T01:55:48.910Z,91809.00
2023-04-15T01:56:48.928Z,91807.00
2023-04-15T01:57:48.950Z,91809.00
2023-04-15T01:58:48.975Z,91811.00
2023-04-15T01:59:48.996Z,91815.00
2023-04-15T02:00:49.037Z,91813.00
2023-04-15T02:01:49.061Z,91815.00
2023-04-15T02:02:49.096Z,91815.00
2023-04-15T02:03:49.243Z,91822.00
2023-04-15T02:04:49.094Z,91824.00
2023-04-15T02:05:49.113Z,91824.00
2023-04-15T02:06:49.147Z,91824.00
2023-04-15T02:07:49.155Z,91824.00
2023-04-15T02:08:49.171Z,91822.00
2023-04-15T02:09:49.191Z,91822.00
2023-04-15T02:10:49.212Z,91824.00
2023-04-15T02:11:49.221Z,91824.00
2023-04-15T02:12:49.261Z,91824.00
2023-04-15T02:13:49.280Z,91824.00
2023-04-15T02:14:49.272Z,91826.00
2023-04-15T02:15:49.290Z,91824.00
2023-04-15T02:16:49.426Z,91824.00
2023-04-15T02:17:49.320Z,91824.00
2023-04-15T02:18:49.314Z,91826.00
2023-04-15T02:19:49.332Z,91824.00
2023-04-15T02:20:49.325Z,91826.00
2023-04-15T02:21:49.327Z,91830.00
2023-04-15T02:22:49.327Z,91830.00
2023-04-15T02:23:49.329Z,91828.00
2023-04-15T02:24:49.329Z,91826.00
2023-04-15T02:25:53.936Z,91826.00
2023-04-15T02:26:50.289Z,91826.00
2023-04-15T02:27:49.257Z,91826.00
2023-04-15T02:28:49.187Z,91826.00
2023-04-15T02:29:49.148Z,91822.00
2023-04-15T02:30:49.092Z,91824.00
2023-04-15T02:31:49.076Z,91826.00
2023-04-15T02:32:49.036Z,91824.00
2023-04-15T02:33:48.952Z,91826.00
2023-04-15T02:34:48.906Z,91826.00
2023-04-15T02:35:48.903Z,91828.00
2023-04-15T02:36:48.975Z,91826.00
2023-04-15T02:37:48.874Z,91828.00
2023-04-15T02:38:48.857Z,91828.00
2023-04-15T02:39:48.895Z,91828.00
2023-04-15T02:40:48.822Z,91830.00
2023-04-15T02:41:48.816Z,91832.00
2023-04-15T02:42:48.826Z,91830.00
2023-04-15T02:43:48.814Z,91828.00
2023-04-15T02:44:48.820Z,91830.00
2023-04-15T02:45:48.921Z,91832.00
2023-04-15T02:46:48.869Z,91834.00
2023-04-15T02:47:48.926Z,91834.00
2023-04-15T02:48:48.874Z,91836.00
2023-04-15T02:49:48.896Z,91832.00
2023-04-15T02:50:48.918Z,91832.00
2023-04-15T02:51:48.925Z,91832.00
2023-04-15T02:52:48.966Z,91834.00
2023-04-15T02:53:49.016Z,91832.00
2023-04-15T02:54:49.024Z,91832.00
2023-04-15T02:55:49.031Z,91834.00
2023-04-15T02:56:49.043Z,91836.00
2023-04-15T02:57:49.066Z,91834.00
2023-04-15T02:58:49.083Z,91836.00
2023-04-15T02:59:49.101Z,91838.00
2023-04-15T03:00:49.109Z,91836.00
2023-04-15T03:01:49.195Z,91836.00
2023-04-15T03:02:49.364Z,91836.00
2023-04-15T03:03:49.199Z,91834.00
2023-04-15T03:04:49.139Z,91836.00
2023-04-15T03:05:49.159Z,91836.00
2023-04-15T03:06:49.174Z,91834.00
2023-04-15T03:07:49.189Z,91836.00
2023-04-15T03:08:49.210Z,91838.00
2023-04-15T03:09:49.233Z,91838.00
2023-04-15T03:10:49.241Z,91838.00
2023-04-15T03:11:49.270Z,91836.00
2023-04-15T03:12:49.291Z,91844.00
2023-04-15T03:13:49.307Z,91842.00
2023-04-15T03:14:49.332Z,91842.00
2023-04-15T03:15:49.361Z,91840.00
2023-04-15T03:16:49.349Z,91842.00
2023-04-15T03:17:49.460Z,91844.00
2023-04-15T03:18:49.400Z,91842.00
2023-04-15T03:19:49.368Z,91842.00
2023-04-15T03:20:49.367Z,91840.00
2023-04-15T03:21:49.389Z,91842.00
2023-04-15T03:22:49.392Z,91842.00
2023-04-15T03:23:49.429Z,91842.00
2023-04-15T03:24:49.429Z,91842.00
2023-04-15T03:25:49.430Z,91840.00
2023-04-15T03:26:49.442Z,91842.00
2023-04-15T03:27:49.444Z,91840.00
2023-04-15T03:28:49.470Z,91842.00
2023-04-15T03:29:49.493Z,91842.00
2023-04-15T03:30:49.600Z,91844.00
2023-04-15T03:31:49.557Z,91842.00
2023-04-15T03:32:49.563Z,91842.00
2023-04-15T03:33:49.541Z,91846.00
2023-04-15T03:34:49.574Z,91838.00
2023-04-15T03:35:49.568Z,91840.00
2023-04-15T03:36:49.579Z,91844.00
2023-04-15T03:37:49.598Z,91842.00
2023-04-15T03:38:49.614Z,91840.00
2023-04-15T03:39:49.622Z,91840.00
2023-04-15T03:40:49.650Z,91840.00
2023-04-15T03:41:49.664Z,91834.00
2023-04-15T03:42:49.677Z,91842.00
2023-04-15T03:43:49.921Z,91838.00
2023-04-15T03:44:49.721Z,91834.00
2023-04-15T03:45:49.743Z,91840.00
2023-04-15T03:46:49.925Z,91842.00
2023-04-15T03:47:49.907Z,91838.00
2023-04-15T03:48:49.788Z,91838.00
2023-04-15T03:49:49.800Z,91838.00
2023-04-15T03:50:49.824Z,91840.00
2023-04-15T03:51:49.800Z,91842.00
2023-04-15T03:52:51.251Z,91840.00
2023-04-15T03:53:49.858Z,91840.00
2023-04-15T03:54:49.870Z,91836.00
2023-04-15T03:55:49.879Z,91838.00
2023-04-15T03:56:49.892Z,91836.00
2023-04-15T03:57:49.903Z,91842.00
2023-04-15T03:58:49.934Z,91838.00
2023-04-15T03:59:49.950Z,91840.00
2023-04-15T04:00:49.967Z,91838.00
2023-04-15T04:01:50.030Z,91840.00
2023-04-15T04:02:50.153Z,91838.00
2023-04-15T04:03:50.189Z,91840.00
2023-04-15T04:04:50.038Z,91844.00
2023-04-15T04:05:50.003Z,91842.00
2023-04-15T04:06:50.028Z,91842.00
2023-04-15T04:07:50.046Z,91842.00
2023-04-15T04:08:50.065Z,91838.00
2023-04-15T04:09:50.109Z,91844.00
2023-04-15T04:10:50.113Z,91838.00
2023-04-15T04:11:50.155Z,91836.00
2023-04-15T04:12:50.167Z,91840.00
2023-04-15T04:13:50.181Z,91840.00
2023-04-15T04:14:50.203Z,91836.00
2023-04-15T04:15:50.242Z,91838.00
2023-04-15T04:16:50.268Z,91840.00
2023-04-15T04:17:50.260Z,91838.00
2023-04-15T04:18:50.278Z,91844.00
2023-04-15T04:19:50.309Z,91840.00
2023-04-15T04:20:50.315Z,91844.00
2023-04-15T04:21:50.329Z,91844.00
2023-04-15T04:22:50.420Z,91842.00
2023-04-15T04:23:50.373Z,91846.00
2023-04-15T04:24:50.401Z,91850.00
2023-04-15T04:25:50.420Z,91850.00
2023-04-15T04:26:50.459Z,91850.00
2023-04-15T04:27:50.476Z,91857.00
2023-04-15T04:28:50.501Z,91853.00
2023-04-15T04:29:50.540Z,91857.00
2023-04-15T04:30:50.561Z,91855.00
2023-04-15T04:31:50.622Z,91859.00
2023-04-15T04:32:50.668Z,91857.00
2023-04-15T04:33:50.614Z,91861.00
2023-04-15T04:34:50.637Z,91857.00
2023-04-15T04:35:50.650Z,91863.00
2023-04-15T04:36:50.686Z,91859.00
2023-04-15T04:37:50.716Z,91857.00
2023-04-15T04:38:50.734Z,91863.00
2023-04-15T04:39:50.767Z,91859.00
2023-04-15T04:40:50.810Z,91857.00
2023-04-15T04:41:50.812Z,91861.00
2023-04-15T04:42:50.831Z,91861.00
2023-04-15T04:43:50.859Z,91857.00
2023-04-15T04:44:50.876Z,91865.00
2023-04-15T04:45:50.923Z,91861.00
2023-04-15T04:46:50.927Z,91857.00
2023-04-15T04:47:51.001Z,91861.00
2023-04-15T04:48:50.976Z,91859.00
2023-04-15T04:49:51.014Z,91861.00
2023-04-15T04:50:51.078Z,91863.00
2023-04-15T04:51:51.085Z,91863.00
2023-04-15T04:52:51.052Z,91861.00
2023-04-15T04:53:51.080Z,91857.00
2023-04-15T04:54:51.108Z,91865.00
2023-04-15T04:55:51.120Z,91863.00
2023-04-15T04:56:51.138Z,91859.00
2023-04-15T04:57:51.162Z,91865.00
2023-04-15T04:58:51.188Z,91863.00
2023-04-15T04:59:51.218Z,91861.00
2023-04-15T05:00:51.240Z,91861.00
2023-04-15T05:01:51.302Z,91863.00
2023-04-15T05:02:51.391Z,91861.00
2023-04-15T05:03:51.414Z,91861.00
2023-04-15T05:04:51.320Z,91861.00
2023-04-15T05:05:51.346Z,91861.00
2023-04-15T05:06:51.378Z,91859.00
2023-04-15T05:07:51.403Z,91859.00
2023-04-15T05:08:51.432Z,91861.00
2023-04-15T05:09:51.468Z,91863.00
2023-04-15T05:10:51.478Z,91863.00
2023-04-15T05:11:51.504Z,91863.00
2023-04-15T05:12:51.532Z,91863.00
2023-04-15T05:13:51.566Z,91867.00
2023-04-15T05:14:51.582Z,91863.00
2023-04-15T05:15:51.642Z,91861.00
2023-04-15T05:16:51.633Z,91861.00
2023-04-15T05:17:51.754Z,91867.00
2023-04-15T05:18:51.684Z,91863.00
2023-04-15T05:19:51.730Z,91863.00
2023-04-15T05:20:51.744Z,91871.00
2023-04-15T05:21:51.767Z,91869.00
2023-04-15T05:22:51.794Z,91867.00
2023-04-15T05:23:51.802Z,91869.00
2023-04-15T05:24:51.839Z,91865.00
2023-04-15T05:25:51.838Z,91861.00
2023-04-15T05:26:51.880Z,91863.00
2023-04-15T05:27:51.895Z,91863.00
2023-04-15T05:28:51.916Z,91865.00
2023-04-15T05:29:51.951Z,91867.00
2023-04-15T05:30:51.976Z,91867.00
2023-04-15T05:31:51.999Z,91869.00
2023-04-15T05:32:52.035Z,91867.00
2023-04-15T05:33:52.044Z,91865.00
2023-04-15T05:34:52.058Z,91869.00
2023-04-15T05:35:52.082Z,91867.00
2023-04-15T05:36:52.105Z,91865.00
2023-04-15T05:37:52.129Z,91869.00
2023-04-15T05:38:52.137Z,91871.00
2023-04-15T05:39:52.171Z,91869.00
2023-04-15T05:40:52.169Z,91873.00
2023-04-15T05:41:52.204Z,91877.00
2023-04-15T05:42:52.214Z,91869.00
2023-04-15T05:43:52.219Z,91871.00
2023-04-15T05:44:52.236Z,91869.00
2023-04-15T05:45:52.306Z,91869.00
2023-04-15T05:46:52.278Z,91869.00
2023-04-15T05:47:52.336Z,91871.00
2023-04-15T05:48:53.815Z,91871.00
2023-04-15T05:49:52.322Z,91871.00
2023-04-15T05:50:52.397Z,91877.00
2023-04-15T05:51:52.352Z,91875.00
2023-04-15T05:52:52.358Z,91875.00
2023-04-15T05:53:52.378Z,91871.00
2023-04-15T05:54:52.391Z,91871.00
2023-04-15T05:55:52.398Z,91879.00
2023-04-15T05:56:52.433Z,91879.00
2023-04-15T05:57:52.440Z,91873.00
2023-04-15T05:58:53.804Z,91873.00
2023-04-15T05:59:52.469Z,91873.00
2023-04-15T06:00:52.486Z,91873.00
2023-04-15T06:01:52.541Z,91875.00
2023-04-15T06:02:52.579Z,91871.00
2023-04-15T06:03:52.584Z,91873.00
2023-04-15T06:04:52.602Z,91877.00
2023-04-15T06:05:52.576Z,91881.00
2023-04-15T06:06:52.596Z,91883.00
2023-04-15T06:07:52.602Z,91883.00
2023-04-15T06:08:52.636Z,91883.00
2023-04-15T06:09:52.659Z,91879.00
2023-04-15T06:10:52.688Z,91881.00
2023-04-15T06:11:52.707Z,91879.00
2023-04-15T06:12:52.732Z,91883.00
2023-04-15T06:13:52.746Z,91887.00
2023-04-15T06:14:52.774Z,91889.00
2023-04-15T06:15:52.774Z,91883.00
2023-04-15T06:16:52.785Z,91883.00
2023-04-15T06:17:52.828Z,91883.00
2023-04-15T06:18:52.829Z,91887.00
2023-04-15T06:19:52.853Z,91875.00
2023-04-15T06:20:52.871Z,91879.00
2023-04-15T06:21:52.896Z,91879.00
2023-04-15T06:22:52.921Z,91879.00
2023-04-15T06:23:52.941Z,91881.00
2023-04-15T06:24:52.977Z,91881.00
2023-04-15T06:25:52.971Z,91883.00
2023-04-15T06:26:53.009Z,91883.00
2023-04-15T06:27:53.020Z,91881.00
2023-04-15T06:28:53.020Z,91879.00
2023-04-15T06:29:53.043Z,91881.00
2023-04-15T06:30:53.044Z,91879.00
2023-04-15T06:31:53.251Z,91879.00
2023-04-15T06:32:53.104Z,91879.00
2023-04-15T06:33:53.070Z,91883.00
2023-04-15T06:34:53.058Z,91883.00
2023-04-15T06:35:53.067Z,91879.00
2023-04-15T06:36:53.077Z,91881.00
2023-04-15T06:37:53.084Z,91879.00
2023-04-15T06:38:53.089Z,91877.00
2023-04-15T06:39:53.079Z,91873.00
2023-04-15T06:40:53.065Z,91875.00
2023-04-15T06:41:53.081Z,91873.00
2023-04-15T06:42:53.095Z,91873.00
2023-04-15T06:43:53.118Z,91875.00
2023-04-15T06:44:53.084Z,91875.00
2023-04-15T06:45:53.087Z,91875.00
2023-04-15T06:46:53.092Z,91873.00
2023-04-15T06:47:53.159Z,91875.00
2023-04-15T06:48:53.112Z,91875.00
2023-04-15T06:49:53.107Z,91873.00
2023-04-15T06:50:53.119Z,91873.00
2023-04-15T06:51:53.123Z,91869.00
2023-04-15T06:52:53.125Z,91871.00
2023-04-15T06:53:53.136Z,91875.00
2023-04-15T06:54:53.157Z,91871.00
2023-04-15T06:55:53.146Z,91871.00
2023-04-15T06:56:53.118Z,91869.00
2023-04-15T06:57:53.085Z,91867.00
2023-04-15T06:58:53.067Z,91863.00
2023-04-15T06:59:53.077Z,91869.00
2023-04-15T07:00:53.113Z,91867.00
2023-04-15T07:01:53.113Z,91859.00
2023-04-15T07:02:53.105Z,91863.00
2023-04-15T07:03:53.170Z,91863.00
2023-04-15T07:04:53.079Z,91861.00
2023-04-15T07:05:53.078Z,91861.00
2023-04-15T07:06:53.092Z,91861.00
2023-04-15T07:07:53.124Z,91857.00
2023-04-15T07:08:53.091Z,91855.00
2023-04-15T07:09:53.110Z,91852.00
2023-04-15T07:10:53.116Z,91853.00
2023-04-15T07:11:53.118Z,91852.00
2023-04-15T07:12:53.112Z,91848.00
2023-04-15T07:13:53.109Z,91848.00
2023-04-15T07:14:53.123Z,91846.00
2023-04-15T07:15:53.122Z,91848.00
2023-04-15T07:16:53.190Z,91846.00
2023-04-15T07:17:53.180Z,91844.00
2023-04-15T07:18:53.158Z,91840.00
2023-04-15T07:19:53.160Z,91844.00
2023-04-15T07:20:53.171Z,91842.00
2023-04-15T07:21:53.185Z,91842.00
2023-04-15T07:22:53.243Z,91842.00
2023-04-15T07:23:53.239Z,91842.00
2023-04-15T07:24:53.266Z,91838.00
2023-04-15T07:25:53.293Z,91840.00
2023-04-15T07:26:53.336Z,91840.00
2023-04-15T07:27:53.327Z,91840.00
2023-04-15T07:28:53.328Z,91836.00
2023-04-15T07:29:53.359Z,91836.00
2023-04-15T07:30:53.404Z,91836.00
2023-04-15T07:31:53.400Z,91836.00
2023-04-15T07:32:53.538Z,91834.00
2023-04-15T07:33:53.446Z,91832.00
2023-04-15T07:34:53.469Z,91830.00
2023-04-15T07:35:53.478Z,91834.00
2023-04-15T07:36:53.492Z,91830.00
2023-04-15T07:37:53.513Z,91828.00
2023-04-15T07:38:53.538Z,91828.00
2023-04-15T07:39:53.572Z,91828.00
2023-04-15T07:40:53.592Z,91826.00
2023-04-15T07:41:53.619Z,91828.00
2023-04-15T07:42:53.642Z,91826.00
2023-04-15T07:43:53.677Z,91815.00
2023-04-15T07:44:53.704Z,91815.00
2023-04-15T07:45:53.775Z,91813.00
2023-04-15T07:46:53.776Z,91811.00
2023-04-15T07:47:53.838Z,91811.00
2023-04-15T07:48:53.821Z,91811.00
2023-04-15T07:49:53.850Z,91807.00
2023-04-15T07:50:53.874Z,91803.00
2023-04-15T07:51:53.916Z,91803.00
2023-04-15T07:52:53.940Z,91801.00
2023-04-15T07:53:53.949Z,91807.00
2023-04-15T07:54:53.974Z,91799.00
2023-04-15T07:55:53.991Z,91803.00
2023-04-15T07:56:54.007Z,91801.00
2023-04-15T07:57:54.038Z,91803.00
2023-04-15T07:58:54.056Z,91799.00
2023-04-15T07:59:54.074Z,91797.00
2023-04-15T08:00:54.101Z,91797.00
2023-04-15T08:01:54.172Z,91793.00
2023-04-15T08:02:54.495Z,91793.00
2023-04-15T08:03:54.293Z,91791.00
2023-04-15T08:04:54.265Z,91791.00
2023-04-15T08:05:54.228Z,91793.00
2023-04-15T08:06:54.275Z,91791.00
2023-04-15T08:07:54.289Z,91785.00
2023-04-15T08:08:54.351Z,91789.00
2023-04-15T08:09:54.341Z,91787.00
2023-04-15T08:10:54.376Z,91785.00
2023-04-15T08:11:54.450Z,91785.00
2023-04-15T08:12:54.399Z,91785.00
2023-04-15T08:13:54.425Z,91783.00
2023-04-15T08:14:54.456Z,91781.00
2023-04-15T08:15:54.517Z,91783.00
2023-04-15T08:16:54.499Z,91783.00
2023-04-15T08:17:54.536Z,91783.00
2023-04-15T08:18:54.538Z,91779.00
2023-04-15T08:19:54.561Z,91779.00
2023-04-15T08:20:54.701Z,91783.00
2023-04-15T08:21:54.698Z,91781.00
2023-04-15T08:22:54.700Z,91781.00
2023-04-15T08:23:54.692Z,91783.00
2023-04-15T08:24:54.727Z,91781.00
2023-04-15T08:25:54.746Z,91777.00
2023-04-15T08:26:54.815Z,91776.00
2023-04-15T08:27:54.761Z,91776.00
2023-04-15T08:28:54.872Z,91772.00
2023-04-15T08:29:54.882Z,91776.00
2023-04-15T08:30:54.834Z,91774.00
2023-04-15T08:31:55.008Z,91776.00
2023-04-15T08:32:54.950Z,91772.00
2023-04-15T08:33:54.924Z,91772.00
2023-04-15T08:34:54.943Z,91772.00
2023-04-15T08:35:54.950Z,91772.00
2023-04-15T08:36:54.979Z,91770.00
2023-04-15T08:37:54.996Z,91768.00
2023-04-15T08:38:54.998Z,91768.00
2023-04-15T08:39:55.019Z,91766.00
2023-04-15T08:40:55.041Z,91764.00
2023-04-15T08:41:55.070Z,91762.00
2023-04-15T08:42:55.076Z,91762.00
2023-04-15T08:43:55.109Z,91766.00
2023-04-15T08:44:55.127Z,91760.00
2023-04-15T08:45:55.144Z,91762.00
2023-04-15T08:46:55.203Z,91760.00
2023-04-15T08:47:55.242Z,91758.00
2023-04-15T08:48:55.263Z,91756.00
2023-04-15T08:49:55.241Z,91756.00
2023-04-15T08:50:55.260Z,91754.00
2023-04-15T08:51:55.296Z,91744.00
2023-04-15T08:52:55.318Z,91742.00
2023-04-15T08:53:55.350Z,91740.00
2023-04-15T08:54:55.372Z,91740.00
2023-04-15T08:55:55.392Z,91732.00
2023-04-15T08:56:55.447Z,91732.00
2023-04-15T08:57:55.445Z,91730.00
2023-04-15T08:58:55.554Z,91728.00
2023-04-15T08:59:55.464Z,91724.00
2023-04-15T09:00:55.508Z,91724.00
2023-04-15T09:01:55.528Z,91722.00
2023-04-15T09:02:55.589Z,91719.00
2023-04-15T09:03:55.632Z,91719.00
2023-04-15T09:04:55.525Z,91717.00
2023-04-15T09:05:55.513Z,91713.00
2023-04-15T09:06:55.530Z,91711.00
2023-04-15T09:07:55.593Z,91711.00
2023-04-15T09:08:55.610Z,91709.00
2023-04-15T09:09:55.574Z,91709.00
2023-04-15T09:10:55.602Z,91707.00
2023-04-15T09:11:55.620Z,91707.00
2023-04-15T09:12:55.650Z,91705.00
2023-04-15T09:13:55.656Z,91705.00
2023-04-15T09:14:55.636Z,91707.00
2023-04-15T09:15:55.631Z,91707.00
2023-04-15T09:16:55.671Z,91707.00
2023-04-15T09:17:55.644Z,91705.00
2023-04-15T09:18:55.637Z,91701.00
2023-04-15T09:19:55.624Z,91699.00
2023-04-15T09:20:55.633Z,91699.00
2023-04-15T09:21:58.441Z,91699.00
2023-04-15T09:22:55.572Z,91697.00
2023-04-15T09:23:55.600Z,91697.00
2023-04-15T09:24:55.485Z,91695.00
2023-04-15T09:25:55.443Z,91697.00
2023-04-15T09:26:55.439Z,91695.00
2023-04-15T09:27:55.364Z,91693.00
2023-04-15T09:28:55.394Z,91693.00
2023-04-15T09:29:55.291Z,91693.00
2023-04-15T09:30:55.254Z,91691.00
2023-04-15T09:31:55.189Z,91691.00
2023-04-15T09:32:55.214Z,91689.00
2023-04-15T09:33:55.103Z,91689.00
2023-04-15T09:34:55.062Z,91687.00
2023-04-15T09:35:55.015Z,91687.00
2023-04-15T09:36:55.006Z,91687.00
2023-04-15T09:37:54.929Z,91685.00
2023-04-15T09:38:54.878Z,91683.00
2023-04-15T09:39:54.821Z,91687.00
2023-04-15T09:40:54.781Z,91683.00
2023-04-15T09:41:54.730Z,91685.00
2023-04-15T09:42:54.752Z,91683.00
2023-04-15T09:43:54.647Z,91683.00
2023-04-15T09:44:54.608Z,91679.00
2023-04-15T09:45:54.599Z,91677.00
2023-04-15T09:46:54.513Z,91675.00
2023-04-15T09:47:55.367Z,91674.00
2023-04-15T09:48:54.418Z,91672.00
2023-04-15T09:49:54.447Z,91668.00
2023-04-15T09:50:54.379Z,91668.00
2023-04-15T09:52:04.596Z,91668.00
2023-04-15T09:52:55.321Z,91664.00
2023-04-15T09:53:54.267Z,91662.00
2023-04-15T09:54:54.229Z,91662.00
2023-04-15T09:55:54.191Z,91660.00
2023-04-15T09:56:54.145Z,91664.00
2023-04-15T09:57:54.098Z,91662.00
2023-04-15T09:58:54.052Z,91660.00
2023-04-15T09:59:54.065Z,91660.00
2023-04-15T10:00:53.974Z,91660.00
2023-04-15T10:01:54.027Z,91660.00
2023-04-15T10:02:53.957Z,91656.00
2023-04-15T10:03:53.955Z,91660.00
2023-04-15T10:04:53.830Z,91656.00
2023-04-15T10:05:53.819Z,91656.00
2023-04-15T10:06:53.801Z,91656.00
2023-04-15T10:07:53.813Z,91654.00
2023-04-15T10:08:53.833Z,91652.00
2023-04-15T10:09:53.836Z,91652.00
2023-04-15T10:10:53.861Z,91652.00
2023-04-15T10:11:53.868Z,91650.00
2023-04-15T10:12:53.870Z,91648.00
2023-04-15T10:13:53.876Z,91648.00
2023-04-15T10:14:53.899Z,91646.00
2023-04-15T10:15:53.920Z,91646.00
2023-04-15T10:16:53.881Z,91644.00
2023-04-15T10:17:53.912Z,91646.00
2023-04-15T10:18:53.880Z,91644.00
2023-04-15T10:19:53.880Z,91644.00
2023-04-15T10:20:53.840Z,91644.00
2023-04-15T10:21:53.851Z,91644.00
2023-04-15T10:22:53.854Z,91644.00
2023-04-15T10:23:53.864Z,91640.00
2023-04-15T10:24:53.899Z,91642.00
2023-04-15T10:25:53.901Z,91646.00
2023-04-15T10:26:53.918Z,91646.00
2023-04-15T10:27:53.923Z,91644.00
2023-04-15T10:28:53.918Z,91644.00
2023-04-15T10:29:53.919Z,91644.00
2023-04-15T10:30:53.990Z,91646.00
2023-04-15T10:31:53.930Z,91644.00
2023-04-15T10:32:53.992Z,91642.00
2023-04-15T10:33:53.994Z,91640.00
2023-04-15T10:34:54.743Z,91640.00
2023-04-15T10:35:54.011Z,91640.00
2023-04-15T10:36:54.022Z,91636.00
2023-04-15T10:37:54.023Z,91636.00
2023-04-15T10:38:54.050Z,91634.00
2023-04-15T10:39:54.066Z,91634.00
2023-04-15T10:40:54.075Z,91634.00
2023-04-15T10:41:54.103Z,91634.00
2023-04-15T10:42:54.099Z,91634.00
2023-04-15T10:43:54.145Z,91634.00
2023-04-15T10:44:54.136Z,91632.00
2023-04-15T10:45:54.150Z,91638.00
2023-04-15T10:46:54.321Z,91632.00
2023-04-15T10:47:54.224Z,91634.00
2023-04-15T10:48:54.203Z,91632.00
2023-04-15T10:49:54.236Z,91632.00
2023-04-15T10:50:54.230Z,91632.00
2023-04-15T10:51:54.254Z,91632.00
2023-04-15T10:52:54.288Z,91634.00
2023-04-15T10:53:54.304Z,91636.00
2023-04-15T10:54:54.337Z,91636.00
2023-04-15T10:55:54.351Z,91638.00
2023-04-15T10:56:54.443Z,91636.00
2023-04-15T10:57:54.408Z,91636.00
2023-04-15T10:58:54.408Z,91634.00
2023-04-15T10:59:54.430Z,91634.00
2023-04-15T11:00:54.458Z,91632.00
2023-04-15T11:01:54.600Z,91636.00
2023-04-15T11:02:54.609Z,91638.00
2023-04-15T11:03:54.651Z,91634.00
2023-04-15T11:04:54.589Z,91636.00
2023-04-15T11:05:54.538Z,91634.00
2023-04-15T11:06:54.538Z,91634.00
2023-04-15T11:07:54.559Z,91632.00
2023-04-15T11:08:54.587Z,91632.00
2023-04-15T11:09:54.615Z,91628.00
2023-04-15T11:10:54.623Z,91628.00
2023-04-15T11:11:54.650Z,91628.00
2023-04-15T11:12:54.707Z,91628.00
2023-04-15T11:13:54.706Z,91630.00
2023-04-15T11:14:54.722Z,91634.00
2023-04-15T11:15:54.763Z,91634.00
2023-04-15T11:16:54.746Z,91636.00
2023-04-15T11:17:54.818Z,91636.00
2023-04-15T11:18:54.822Z,91636.00
2023-04-15T11:19:54.822Z,91638.00
2023-04-15T11:20:54.856Z,91640.00
2023-04-15T11:21:54.876Z,91638.00
2023-04-15T11:23:07.988Z,91638.00
2023-04-15T11:23:55.857Z,91638.00
2023-04-15T11:24:54.805Z,91636.00
2023-04-15T11:25:54.759Z,91636.00
2023-04-15T11:26:54.726Z,91638.00
2023-04-15T11:27:54.694Z,91636.00
2023-04-15T11:28:54.697Z,91636.00
2023-04-15T11:29:54.621Z,91636.00
2023-04-15T11:30:54.560Z,91638.00
2023-04-15T11:31:54.552Z,91638.00
2023-04-15T11:32:54.600Z,91638.00
2023-04-15T11:33:54.576Z,91638.00
2023-04-15T11:34:54.563Z,91640.00
2023-04-15T11:35:54.567Z,91638.00
2023-04-15T11:36:54.602Z,91636.00
2023-04-15T11:37:54.592Z,91636.00
2023-04-15T11:38:54.614Z,91640.00
2023-04-15T11:39:54.632Z,91638.00
2023-04-15T11:40:54.638Z,91638.00
2023-04-15T11:41:54.648Z,91638.00
2023-04-15T11:42:54.684Z,91638.00
2023-04-15T11:43:54.703Z,91636.00
2023-04-15T11:44:54.689Z,91634.00